Time;durP1;ratioP1;P1;durP2;ratioP2;P2;SDS_P1;SDS_P2;PMS_P1;PMS_P2;Temp;Humidity;BMP_temperature;BMP_pressure;BME280_temperature;BME280_humidity;BME280_pressure;Samples;Min_cycle;Max_cycle;Signal;HPM_P1;HPM_P2
2024/02/22 00:02:20;;;;;;;5.30;4.38;;;9.70;99.90;;;;;;5127495;27;20027;-62
2024/02/22 00:04:45;;;;;;;4.80;4.13;;;9.80;99.90;;;;;;5119407;27;20575;-62
2024/02/22 00:07:14;;;;;;;4.28;3.88;;;9.80;99.90;;;;;;5116137;27;20078;-62
2024/02/22 00:09:40;;;;;;;4.78;4.38;;;9.90;99.90;;;;;;5119567;27;20047;-62
2024/02/22 00:12:06;;;;;;;5.10;4.60;;;9.70;99.90;;;;;;5125407;27;20070;-62
2024/02/22 00:14:34;;;;;;;5.03;4.50;;;9.80;99.90;;;;;;5111213;27;20042;-62
2024/02/22 00:17:01;;;;;;;5.70;4.75;;;9.90;99.90;;;;;;5122380;27;20039;-62
2024/02/22 00:19:27;;;;;;;5.00;4.50;;;9.90;99.90;;;;;;5111076;27;20063;-61
2024/02/22 00:21:53;;;;;;;5.10;4.60;;;9.80;99.90;;;;;;5115783;27;20105;-64
2024/02/22 00:24:19;;;;;;;5.45;4.95;;;9.90;99.90;;;;;;5121529;27;20486;-61
2024/02/22 00:26:47;;;;;;;6.53;5.40;;;9.90;99.90;;;;;;5114978;27;20039;-62
2024/02/22 00:29:13;;;;;;;5.75;5.15;;;9.90;99.90;;;;;;5126447;27;20241;-62
2024/02/22 00:31:38;;;;;;;5.28;4.78;;;9.80;99.90;;;;;;5117302;27;20038;-62
2024/02/22 00:34:04;;;;;;;6.20;5.57;;;9.90;99.90;;;;;;5127784;27;20078;-63
2024/02/22 00:36:39;;;;;;;5.55;5.05;;;10.00;99.90;;;;;;5125043;27;20038;-61
2024/02/22 00:39:05;;;;;;;6.07;5.35;;;10.00;99.90;;;;;;5118263;27;20127;-62
2024/02/22 00:41:31;;;;;;;6.53;5.57;;;9.90;99.90;;;;;;5123826;27;20515;-62
2024/02/22 00:43:56;;;;;;;6.15;5.55;;;9.90;99.90;;;;;;5117902;27;20047;-62
2024/02/22 00:46:22;;;;;;;6.38;5.78;;;10.00;99.90;;;;;;5116019;27;20039;-63
2024/02/22 00:48:48;;;;;;;6.43;5.68;;;10.00;99.90;;;;;;5120597;27;20043;-62
2024/02/22 00:51:14;;;;;;;6.32;5.47;;;9.90;99.90;;;;;;5115375;27;20344;-62
2024/02/22 00:53:39;;;;;;;5.70;5.10;;;10.00;99.90;;;;;;5115910;27;20050;-62
2024/02/22 00:56:05;;;;;;;5.57;4.95;;;9.90;99.90;;;;;;5115075;27;20078;-61
2024/02/22 00:58:31;;;;;;;5.47;4.93;;;10.10;99.90;;;;;;5120958;27;20367;-61
2024/02/22 01:00:57;;;;;;;6.00;5.28;;;10.00;99.90;;;;;;5121524;27;20028;-62
2024/02/22 01:03:22;;;;;;;5.65;4.82;;;10.00;99.90;;;;;;5121039;27;20570;-62
2024/02/22 01:05:48;;;;;;;7.00;5.47;;;10.10;99.90;;;;;;5114216;27;20093;-62
2024/02/22 01:08:14;;;;;;;5.70;5.10;;;9.90;99.90;;;;;;5114228;27;20374;-61
2024/02/22 01:10:40;;;;;;;6.28;4.95;;;10.10;99.90;;;;;;5112698;27;20038;-61
2024/02/22 01:13:05;;;;;;;6.70;5.20;;;9.90;99.90;;;;;;5124481;27;20078;-62
2024/02/22 01:15:31;;;;;;;5.95;4.78;;;10.10;99.90;;;;;;5110258;27;20486;-62
2024/02/22 01:17:57;;;;;;;6.65;4.82;;;10.00;99.90;;;;;;5119872;27;20027;-61
2024/02/22 01:20:23;;;;;;;5.20;4.68;;;10.10;99.90;;;;;;5114554;27;20031;-62
2024/02/22 01:22:48;;;;;;;6.22;5.50;;;10.10;99.90;;;;;;5115487;27;20353;-62
2024/02/22 01:25:14;;;;;;;6.20;5.05;;;10.20;99.90;;;;;;5108797;27;20124;-62
2024/02/22 01:27:40;;;;;;;5.85;4.60;;;10.10;99.90;;;;;;5119671;27;20497;-63
2024/02/22 01:30:06;;;;;;;6.38;5.50;;;10.20;99.90;;;;;;5120192;27;20039;-62
2024/02/22 01:32:32;;;;;;;7.32;5.40;;;10.00;99.90;;;;;;5117104;27;20039;-62
2024/02/22 01:34:58;;;;;;;7.32;5.82;;;10.00;99.90;;;;;;5124833;27;20462;-62
2024/02/22 01:37:23;;;;;;;7.18;5.80;;;10.10;99.90;;;;;;5122832;27;20027;-62
2024/02/22 01:39:49;;;;;;;7.13;5.80;;;10.10;99.90;;;;;;5117017;27;20035;-62
2024/02/22 01:42:15;;;;;;;7.75;5.78;;;10.30;99.90;;;;;;5123383;27;20082;-62
2024/02/22 01:44:41;;;;;;;7.85;6.20;;;10.00;99.90;;;;;;5124147;27;20041;-62
2024/02/22 01:47:07;;;;;;;8.63;6.40;;;10.20;99.90;;;;;;5115803;27;20562;-63
2024/02/22 01:49:33;;;;;;;7.65;6.18;;;10.30;99.90;;;;;;5110050;27;20406;-62
2024/02/22 01:52:02;;;;;;;8.32;6.22;;;10.20;99.90;;;;;;5114557;27;20063;-62
2024/02/22 01:54:28;;;;;;;8.30;6.55;;;10.10;99.90;;;;;;5123365;27;20047;-63
2024/02/22 01:56:55;;;;;;;7.68;6.18;;;10.30;99.90;;;;;;5117351;27;20402;-62
2024/02/22 01:59:21;;;;;;;9.20;6.80;;;10.20;99.90;;;;;;5110537;27;20036;-62
2024/02/22 02:01:50;;;;;;;11.60;7.00;;;10.20;99.90;;;;;;5119805;27;20031;-62
2024/02/22 02:04:16;;;;;;;9.70;6.75;;;10.20;99.90;;;;;;5118015;27;20035;-62
2024/02/22 02:06:44;;;;;;;9.90;7.57;;;10.40;99.90;;;;;;5115072;27;20023;-63
2024/02/22 02:09:14;;;;;;;9.70;7.22;;;10.10;99.90;;;;;;5116253;27;20047;-62
2024/02/22 02:11:41;;;;;;;10.57;7.60;;;10.30;99.90;;;;;;5116871;27;20065;-62
2024/02/22 02:14:08;;;;;;;11.27;7.05;;;10.40;99.90;;;;;;5117531;27;20040;-62
2024/02/22 02:16:33;;;;;;;10.05;7.53;;;10.20;99.90;;;;;;5115935;27;20041;-63
2024/02/22 02:18:59;;;;;;;9.75;7.18;;;10.20;99.90;;;;;;5118145;27;20043;-62
2024/02/22 02:22:05;;;;;;;9.88;7.07;;;10.30;99.90;;;;;;5110780;27;20095;-63
2024/02/22 02:24:41;;;;;;;14.00;8.45;;;10.40;99.90;;;;;;5090913;27;20605;-62
2024/02/22 02:27:07;;;;;;;13.60;8.73;;;10.40;99.90;;;;;;5117914;27;20043;-63
2024/02/22 02:29:33;;;;;;;12.73;8.65;;;10.30;99.90;;;;;;5113010;27;20455;-62
2024/02/22 02:31:58;;;;;;;18.30;10.02;;;10.40;99.90;;;;;;5112631;27;20094;-62
2024/02/22 02:34:24;;;;;;;18.50;10.23;;;10.40;99.90;;;;;;5116676;27;20039;-63
2024/02/22 02:36:50;;;;;;;18.70;10.55;;;10.40;99.90;;;;;;5117319;27;20050;-63
2024/02/22 02:39:15;;;;;;;16.13;10.43;;;10.30;99.90;;;;;;5113109;27;20130;-62
2024/02/22 02:41:41;;;;;;;21.80;11.20;;;10.40;99.90;;;;;;5114874;27;20027;-63
2024/02/22 02:44:07;;;;;;;20.98;11.48;;;10.40;99.90;;;;;;5109842;27;20126;-62
2024/02/22 02:46:33;;;;;;;25.77;11.63;;;10.30;99.90;;;;;;5122453;27;20039;-62
2024/02/22 02:48:59;;;;;;;26.08;13.20;;;10.40;99.90;;;;;;5117859;27;20477;-63
2024/02/22 02:51:25;;;;;;;30.73;13.18;;;10.20;99.90;;;;;;5112120;27;20043;-63
2024/02/22 02:53:50;;;;;;;25.60;13.40;;;10.40;99.90;;;;;;5119444;27;20038;-62
2024/02/22 02:56:16;;;;;;;26.95;13.52;;;10.30;99.90;;;;;;5120640;27;20031;-63
2024/02/22 02:58:42;;;;;;;32.83;13.98;;;10.40;99.90;;;;;;5107264;27;20122;-62
2024/02/22 03:01:07;;;;;;;32.90;14.20;;;10.50;99.90;;;;;;5110493;28;20035;-63
2024/02/22 03:03:33;;;;;;;37.78;15.10;;;10.30;99.90;;;;;;5120879;27;20115;-62
2024/02/22 03:05:59;;;;;;;31.58;14.60;;;10.30;99.90;;;;;;5119224;27;20115;-62
2024/02/22 03:08:26;;;;;;;34.80;14.27;;;10.50;99.90;;;;;;5114682;28;20324;-62
2024/02/22 03:10:52;;;;;;;40.00;16.00;;;10.30;99.90;;;;;;5111908;28;20046;-62
2024/02/22 03:13:17;;;;;;;46.20;16.05;;;10.50;99.90;;;;;;5115465;27;20040;-62
2024/02/22 03:15:43;;;;;;;51.13;17.85;;;10.50;99.90;;;;;;5113460;27;20038;-61
2024/02/22 03:18:09;;;;;;;36.88;15.75;;;10.40;99.90;;;;;;5115666;28;20577;-62
2024/02/22 03:20:35;;;;;;;44.10;17.42;;;10.50;99.90;;;;;;5120908;28;20505;-62
2024/02/22 03:23:02;;;;;;;44.08;16.85;;;10.30;99.90;;;;;;5120684;27;20354;-61
2024/02/22 03:25:28;;;;;;;60.22;18.70;;;10.30;99.90;;;;;;5118096;28;20044;-62
2024/02/22 03:27:58;;;;;;;63.65;19.95;;;10.50;99.90;;;;;;5114920;28;20039;-62
2024/02/22 03:30:25;;;;;;;53.63;18.58;;;10.30;99.90;;;;;;5117636;27;20042;-62
2024/02/22 03:32:51;;;;;;;59.15;18.23;;;10.50;99.90;;;;;;5124843;27;20035;-62
2024/02/22 03:35:17;;;;;;;78.25;19.95;;;10.50;99.90;;;;;;5117069;27;20054;-64
2024/02/22 03:37:43;;;;;;;70.65;19.00;;;10.50;99.90;;;;;;5123085;27;20425;-62
2024/02/22 03:40:10;;;;;;;67.55;19.80;;;10.20;99.90;;;;;;5119822;27;20043;-62
2024/02/22 03:42:36;;;;;;;67.00;20.55;;;10.30;99.90;;;;;;5119962;27;20173;-63
2024/02/22 03:45:02;;;;;;;73.93;20.40;;;10.40;99.90;;;;;;5117154;27;20815;-62
2024/02/22 03:47:28;;;;;;;88.20;21.33;;;10.30;99.90;;;;;;5122355;27;20365;-63
2024/02/22 03:49:54;;;;;;;87.40;23.15;;;10.30;99.90;;;;;;5126086;27;20474;-63
2024/02/22 03:52:20;;;;;;;74.03;20.30;;;10.30;99.90;;;;;;5123102;27;20039;-62
2024/02/22 03:54:45;;;;;;;75.90;21.50;;;10.30;99.90;;;;;;5124577;27;20092;-63
2024/02/22 03:57:11;;;;;;;64.10;22.05;;;10.50;99.90;;;;;;5122752;27;20092;-62
2024/02/22 03:59:37;;;;;;;135.02;23.95;;;10.50;99.90;;;;;;5124314;27;20031;-62
2024/02/22 04:02:03;;;;;;;114.88;22.75;;;10.30;99.90;;;;;;5119105;27;20106;-62
2024/02/22 04:04:29;;;;;;;97.90;22.02;;;10.30;99.90;;;;;;5116596;27;20570;-63
2024/02/22 04:06:56;;;;;;;70.90;21.50;;;10.30;99.90;;;;;;5120953;27;20035;-62
2024/02/22 04:09:22;;;;;;;88.13;21.77;;;10.30;99.90;;;;;;5123378;27;20050;-62
2024/02/22 04:11:47;;;;;;;73.82;23.30;;;10.50;99.90;;;;;;5122354;27;20043;-62
2024/02/22 04:14:13;;;;;;;85.47;22.52;;;10.50;99.90;;;;;;5124540;27;20050;-62
2024/02/22 04:16:40;;;;;;;91.95;22.63;;;10.30;99.90;;;;;;5118844;27;20045;-63
2024/02/22 04:19:06;;;;;;;100.35;23.45;;;10.50;99.90;;;;;;5116479;27;20035;-63
2024/02/22 04:21:32;;;;;;;89.57;22.55;;;10.40;99.90;;;;;;5122485;27;20127;-63
2024/02/22 04:23:58;;;;;;;117.63;23.45;;;10.30;99.90;;;;;;5113749;27;20076;-62
2024/02/22 04:26:24;;;;;;;104.25;24.65;;;10.40;99.90;;;;;;5121752;27;20209;-62
2024/02/22 04:28:49;;;;;;;81.55;21.85;;;10.30;99.90;;;;;;5121196;27;20341;-62
2024/02/22 04:31:15;;;;;;;115.25;23.73;;;10.50;99.90;;;;;;5116266;27;20027;-62
2024/02/22 04:33:41;;;;;;;80.22;22.88;;;10.50;99.90;;;;;;5120062;27;20693;-62
2024/02/22 04:36:07;;;;;;;132.57;24.52;;;10.50;99.90;;;;;;5130541;27;20031;-63
2024/02/22 04:38:33;;;;;;;88.55;21.95;;;10.40;99.90;;;;;;5122482;27;20035;-62
2024/02/22 04:40:59;;;;;;;74.88;21.60;;;10.40;99.90;;;;;;5116509;27;20417;-62
2024/02/22 04:43:24;;;;;;;71.65;22.92;;;10.40;99.90;;;;;;5124243;27;20819;-62
2024/02/22 04:45:50;;;;;;;111.10;22.17;;;10.60;99.90;;;;;;5113471;27;20434;-62
2024/02/22 04:48:16;;;;;;;109.05;24.52;;;10.30;99.90;;;;;;5117417;27;20530;-62
2024/02/22 04:50:42;;;;;;;115.32;23.92;;;10.50;99.90;;;;;;5117926;27;20040;-62
2024/02/22 04:53:08;;;;;;;87.53;22.25;;;10.50;99.90;;;;;;5123706;27;20493;-62
2024/02/22 04:55:33;;;;;;;101.65;22.15;;;10.50;99.90;;;;;;5118264;27;20035;-63
2024/02/22 04:58:05;;;;;;;65.50;22.15;;;10.30;99.90;;;;;;5118227;27;20159;-62
2024/02/22 05:00:34;;;;;;;84.22;22.00;;;10.30;99.90;;;;;;5122741;27;20493;-62
2024/02/22 05:03:00;;;;;;;98.63;21.60;;;10.40;99.90;;;;;;5123200;27;20635;-62
2024/02/22 05:05:26;;;;;;;84.00;21.08;;;10.50;99.90;;;;;;5123988;27;20592;-63
2024/02/22 05:07:52;;;;;;;80.82;19.25;;;10.50;99.90;;;;;;5112396;27;20042;-62
2024/02/22 05:10:17;;;;;;;56.85;17.90;;;10.50;99.90;;;;;;5113411;27;20047;-62
2024/02/22 05:12:43;;;;;;;54.65;16.80;;;10.50;99.90;;;;;;5115875;27;20043;-62
2024/02/22 05:15:10;;;;;;;48.90;17.55;;;10.60;99.90;;;;;;5124054;27;20111;-61
2024/02/22 05:17:37;;;;;;;40.13;15.25;;;10.50;99.90;;;;;;5120379;27;20494;-62
2024/02/22 05:20:03;;;;;;;54.65;16.75;;;10.60;99.90;;;;;;5111058;27;20058;-61
2024/02/22 05:22:29;;;;;;;41.65;15.38;;;10.50;99.90;;;;;;5109533;27;20465;-62
2024/02/22 05:24:55;;;;;;;48.22;15.35;;;10.60;99.90;;;;;;5114043;27;20043;-62
2024/02/22 05:27:21;;;;;;;37.35;14.27;;;10.40;99.90;;;;;;5118894;27;20043;-63
2024/02/22 05:29:46;;;;;;;30.75;13.95;;;10.40;99.90;;;;;;5118941;27;20176;-62
2024/02/22 05:32:12;;;;;;;36.83;13.27;;;10.40;99.90;;;;;;5118284;27;20047;-62
2024/02/22 05:34:38;;;;;;;29.08;13.88;;;10.40;99.90;;;;;;5119805;27;20043;-62
2024/02/22 05:37:08;;;;;;;26.73;12.30;;;10.60;99.90;;;;;;5110957;27;20522;-62
2024/02/22 05:39:34;;;;;;;28.73;11.88;;;10.50;99.90;;;;;;5120169;27;20385;-62
2024/02/22 05:42:00;;;;;;;23.23;12.02;;;10.50;99.90;;;;;;5114095;27;20042;-61
2024/02/22 05:44:26;;;;;;;22.88;11.68;;;10.50;99.90;;;;;;5110815;27;20044;-62
2024/02/22 05:46:52;;;;;;;27.38;11.98;;;10.60;99.90;;;;;;5118820;27;20105;-61
2024/02/22 05:49:17;;;;;;;21.83;10.55;;;10.50;99.90;;;;;;5111965;27;20427;-62
2024/02/22 05:51:43;;;;;;;22.98;10.73;;;10.50;99.90;;;;;;5118806;27;20039;-62
2024/02/22 05:54:09;;;;;;;17.75;9.77;;;10.60;99.90;;;;;;5115738;27;20051;-62
2024/02/22 05:56:35;;;;;;;15.35;9.23;;;10.60;99.90;;;;;;5122773;27;20043;-63
2024/02/22 05:59:00;;;;;;;16.45;9.20;;;10.70;99.90;;;;;;5115411;27;20039;-63
2024/02/22 06:01:26;;;;;;;18.73;9.52;;;10.50;99.90;;;;;;5118273;27;20039;-62
2024/02/22 06:03:52;;;;;;;16.45;8.85;;;10.60;99.90;;;;;;5110304;27;20046;-63
2024/02/22 06:06:17;;;;;;;15.40;8.80;;;10.50;99.90;;;;;;5120727;27;20030;-62
2024/02/22 06:08:43;;;;;;;12.80;6.97;;;10.50;99.90;;;;;;5121486;27;20114;-62
2024/02/22 06:11:11;;;;;;;12.90;7.60;;;10.50;99.90;;;;;;5123385;27;20116;-63
2024/02/22 06:13:37;;;;;;;9.57;6.77;;;10.70;99.90;;;;;;5113805;27;20046;-62
2024/02/22 06:16:03;;;;;;;11.18;7.50;;;10.50;99.90;;;;;;5119394;27;20305;-62
2024/02/22 06:18:29;;;;;;;10.75;6.85;;;10.60;99.90;;;;;;5116748;27;20619;-62
2024/02/22 06:20:55;;;;;;;15.82;9.13;;;10.60;99.90;;;;;;5113300;27;20083;-63
2024/02/22 06:23:20;;;;;;;16.77;9.60;;;10.70;99.90;;;;;;5121435;27;20035;-63
2024/02/22 06:25:46;;;;;;;18.65;10.40;;;10.60;99.90;;;;;;5118391;27;20103;-63
2024/02/22 06:28:12;;;;;;;22.52;11.07;;;10.50;99.90;;;;;;5113246;27;20089;-63
2024/02/22 06:30:38;;;;;;;28.50;13.10;;;10.50;99.90;;;;;;5119151;27;20444;-63
2024/02/22 06:33:04;;;;;;;53.20;16.25;;;10.50;99.90;;;;;;5119007;27;20069;-62
2024/02/22 06:35:30;;;;;;;43.20;16.65;;;10.60;99.90;;;;;;5121985;27;20043;-63
2024/02/22 06:37:55;;;;;;;46.65;17.30;;;10.60;99.90;;;;;;5115835;27;20032;-63
2024/02/22 06:40:21;;;;;;;46.92;18.30;;;10.60;99.90;;;;;;5111668;27;20035;-63
2024/02/22 06:42:47;;;;;;;53.45;20.40;;;10.60;99.90;;;;;;5120702;27;20042;-63
2024/02/22 06:45:13;;;;;;;68.22;23.23;;;10.50;99.90;;;;;;5111505;27;20044;-63
2024/02/22 06:47:38;;;;;;;75.97;24.13;;;10.60;99.90;;;;;;5117582;27;20111;-63
2024/02/22 06:50:05;;;;;;;72.93;25.67;;;10.60;99.90;;;;;;5117731;27;20468;-62
2024/02/22 06:52:31;;;;;;;81.22;23.80;;;10.40;99.90;;;;;;5115382;27;20078;-62
2024/02/22 06:54:57;;;;;;;82.35;25.70;;;10.50;99.90;;;;;;5125267;27;20842;-62
2024/02/22 06:57:23;;;;;;;75.53;23.75;;;10.40;99.90;;;;;;5129591;27;20039;-62
2024/02/22 06:59:48;;;;;;;64.65;21.95;;;10.40;99.90;;;;;;5123888;27;20031;-63
2024/02/22 07:02:15;;;;;;;62.47;21.30;;;10.40;99.90;;;;;;5128311;27;20231;-62
2024/02/22 07:04:45;;;;;;;70.70;23.73;;;10.40;99.90;;;;;;5127101;27;20086;-62
2024/02/22 07:07:12;;;;;;;59.95;20.60;;;10.50;99.90;;;;;;5130975;27;20905;-62
2024/02/22 07:09:38;;;;;;;66.13;20.95;;;10.50;99.90;;;;;;5132590;27;20039;-63
2024/02/22 07:12:04;;;;;;;60.10;19.58;;;10.50;99.90;;;;;;5130018;27;20038;-62
2024/02/22 07:14:30;;;;;;;58.55;17.50;;;10.50;99.90;;;;;;5132879;27;20061;-63
2024/02/22 07:16:56;;;;;;;45.60;14.57;;;10.50;99.90;;;;;;5131107;27;20031;-63
2024/02/22 07:19:22;;;;;;;51.35;13.50;;;10.40;99.90;;;;;;5130351;27;20400;-63
2024/02/22 07:21:48;;;;;;;44.35;11.75;;;10.50;99.90;;;;;;5130798;27;20042;-64
2024/02/22 07:24:14;;;;;;;41.60;11.80;;;10.30;99.90;;;;;;5130960;27;20038;-61
2024/02/22 07:26:40;;;;;;;40.40;9.95;;;10.50;99.90;;;;;;5132166;27;20034;-61
2024/02/22 07:29:05;;;;;;;39.25;9.77;;;10.30;99.90;;;;;;5129697;27;20039;-61
2024/02/22 07:31:31;;;;;;;36.13;8.52;;;10.40;99.90;;;;;;5128106;27;20042;-61
2024/02/22 07:33:57;;;;;;;46.72;9.32;;;10.40;99.90;;;;;;5131405;27;20034;-61
2024/02/22 07:36:24;;;;;;;36.65;8.40;;;10.40;99.90;;;;;;5131388;27;20034;-62
2024/02/22 07:38:50;;;;;;;38.55;8.25;;;10.50;99.90;;;;;;5128842;27;20088;-62
2024/02/22 07:41:16;;;;;;;40.75;8.23;;;10.60;99.90;;;;;;5132789;27;20038;-61
2024/02/22 07:43:43;;;;;;;28.10;6.95;;;10.60;99.90;;;;;;5129554;27;20031;-61
2024/02/22 07:46:11;;;;;;;32.53;7.20;;;10.70;99.90;;;;;;5129505;27;20494;-62
2024/02/22 07:48:40;;;;;;;39.90;8.02;;;10.80;99.90;;;;;;5130709;27;20062;-61
2024/02/22 07:51:07;;;;;;;34.33;6.40;;;10.70;99.90;;;;;;5133275;27;20038;-61
2024/02/22 07:53:37;;;;;;;33.22;6.70;;;10.80;99.90;;;;;;5131371;27;20035;-61
2024/02/22 07:56:07;;;;;;;26.10;6.25;;;10.70;99.90;;;;;;5129991;27;20065;-61
2024/02/22 07:58:51;;;;;;;28.70;6.43;;;10.60;99.90;;;;;;5131249;27;20133;-61
2024/02/22 08:01:17;;;;;;;30.10;6.15;;;10.70;99.90;;;;;;5128654;27;20067;-61
2024/02/22 08:03:43;;;;;;;25.67;5.70;;;10.60;99.90;;;;;;5131499;27;20154;-62
2024/02/22 08:06:12;;;;;;;28.75;5.95;;;10.70;99.90;;;;;;5119146;27;20073;-62
2024/02/22 08:08:39;;;;;;;26.70;5.38;;;10.80;99.90;;;;;;5124902;27;20044;-61
2024/02/22 08:11:06;;;;;;;26.00;5.00;;;10.80;99.90;;;;;;5131453;27;20062;-62
2024/02/22 08:13:32;;;;;;;33.35;5.85;;;10.80;99.90;;;;;;5128140;27;20042;-62
2024/02/22 08:16:07;;;;;;;30.38;6.10;;;10.90;99.90;;;;;;5131432;27;20039;-62
2024/02/22 08:18:34;;;;;;;31.33;5.32;;;11.00;99.90;;;;;;5126282;27;20043;-62
2024/02/22 08:21:00;;;;;;;25.10;5.47;;;11.10;99.90;;;;;;5112289;27;20049;-62
2024/02/22 08:23:26;;;;;;;21.13;6.03;;;11.10;99.90;;;;;;5124002;27;20346;-62
2024/02/22 08:25:52;;;;;;;28.40;5.18;;;11.10;99.90;;;;;;5130974;27;20244;-61
2024/02/22 08:28:18;;;;;;;32.17;5.85;;;11.30;99.90;;;;;;5128468;27;20035;-62
2024/02/22 08:30:44;;;;;;;25.73;5.93;;;11.10;99.90;;;;;;5131353;27;20077;-63
2024/02/22 08:33:11;;;;;;;23.42;5.43;;;11.20;99.90;;;;;;5130381;27;20355;-62
2024/02/22 08:35:37;;;;;;;31.17;5.47;;;11.10;99.90;;;;;;5130970;27;20681;-61
2024/02/22 08:38:03;;;;;;;26.23;4.90;;;11.00;99.90;;;;;;5118973;27;20056;-62
2024/02/22 08:40:29;;;;;;;21.15;5.25;;;11.00;99.90;;;;;;5115529;27;20102;-62
2024/02/22 08:42:54;;;;;;;25.02;5.07;;;11.10;99.90;;;;;;5127859;27;20042;-61
2024/02/22 08:45:21;;;;;;;27.00;4.80;;;11.00;99.90;;;;;;5130842;27;20043;-62
2024/02/22 08:47:47;;;;;;;22.17;5.13;;;11.10;99.90;;;;;;5127577;27;20276;-62
2024/02/22 08:50:13;;;;;;;26.23;5.28;;;11.00;99.90;;;;;;5129649;27;20118;-61
2024/02/22 08:52:43;;;;;;;26.98;5.13;;;11.10;99.90;;;;;;5127679;27;20502;-62
2024/02/22 08:55:11;;;;;;;26.83;5.45;;;11.00;99.90;;;;;;5131427;27;20051;-63
2024/02/22 08:57:37;;;;;;;28.30;5.55;;;11.10;99.90;;;;;;5127273;27;20073;-62
2024/02/22 09:00:04;;;;;;;27.17;5.00;;;11.40;99.90;;;;;;5128264;27;20586;-62
2024/02/22 09:02:30;;;;;;;30.60;5.88;;;11.50;99.90;;;;;;5124990;27;20046;-62
2024/02/22 09:04:56;;;;;;;28.42;5.78;;;11.80;99.90;;;;;;5128975;27;20481;-62
2024/02/22 09:07:22;;;;;;;27.98;5.15;;;11.80;99.90;;;;;;5128250;27;20042;-63
2024/02/22 09:09:51;;;;;;;21.90;4.22;;;12.00;99.90;;;;;;5129093;27;20043;-62
2024/02/22 09:12:18;;;;;;;26.33;5.15;;;11.90;99.90;;;;;;5129830;27;20481;-63
2024/02/22 09:14:43;;;;;;;19.73;5.32;;;11.90;99.90;;;;;;5125640;27;20035;-63
2024/02/22 09:17:09;;;;;;;38.60;6.25;;;11.90;99.90;;;;;;5127179;27;20039;-62
2024/02/22 09:19:35;;;;;;;21.33;4.85;;;11.90;99.90;;;;;;5130694;27;20077;-62
2024/02/22 09:22:02;;;;;;;22.67;4.80;;;11.80;99.90;;;;;;5127871;27;20043;-63
2024/02/22 09:24:29;;;;;;;17.85;4.43;;;11.90;99.90;;;;;;5128191;27;20082;-65
2024/02/22 09:26:55;;;;;;;27.40;6.30;;;11.90;99.90;;;;;;5126096;27;20082;-62
2024/02/22 09:29:22;;;;;;;24.02;5.07;;;11.80;99.90;;;;;;5117917;27;20039;-64
2024/02/22 09:31:47;;;;;;;24.75;6.32;;;11.90;99.90;;;;;;5127253;27;20071;-63
2024/02/22 09:34:13;;;;;;;23.70;5.90;;;11.80;99.90;;;;;;5121632;27;20507;-63
2024/02/22 09:36:40;;;;;;;25.70;6.18;;;11.80;99.90;;;;;;5121193;27;20046;-63
2024/02/22 09:39:07;;;;;;;22.52;6.43;;;11.80;99.90;;;;;;5125598;27;20039;-63
2024/02/22 09:41:33;;;;;;;21.80;6.63;;;11.80;99.90;;;;;;5126287;27;20738;-63
2024/02/22 09:43:59;;;;;;;24.20;6.80;;;11.80;99.90;;;;;;5122756;27;20043;-62
2024/02/22 09:46:26;;;;;;;25.15;6.57;;;11.70;99.90;;;;;;5126277;27;20031;-64
2024/02/22 09:48:52;;;;;;;30.40;6.25;;;11.70;99.90;;;;;;5129068;27;20107;-64
2024/02/22 09:51:18;;;;;;;35.83;7.60;;;11.70;99.90;;;;;;5120015;27;20546;-63
2024/02/22 09:53:45;;;;;;;31.38;7.32;;;11.60;99.90;;;;;;5121316;27;20073;-63
2024/02/22 09:56:14;;;;;;;25.23;6.25;;;11.60;99.90;;;;;;5127148;27;20043;-63
2024/02/22 09:58:40;;;;;;;21.20;6.30;;;11.70;99.90;;;;;;5126868;27;20065;-64
2024/02/22 10:01:06;;;;;;;29.55;6.63;;;11.60;99.90;;;;;;5125129;27;20034;-65
2024/02/22 10:03:36;;;;;;;23.95;6.03;;;11.70;99.90;;;;;;5126661;27;20409;-63
2024/02/22 10:06:02;;;;;;;23.00;5.90;;;11.70;99.90;;;;;;5126681;27;20388;-63
2024/02/22 10:08:29;;;;;;;21.20;6.40;;;11.70;99.90;;;;;;5125756;27;20039;-64
2024/02/22 10:11:05;;;;;;;21.77;6.22;;;11.80;99.90;;;;;;5128774;27;20042;-63
2024/02/22 10:13:33;;;;;;;19.83;5.93;;;11.80;99.90;;;;;;5129878;27;20046;-64
2024/02/22 10:16:11;;;;;;;22.70;6.22;;;11.80;99.90;;;;;;5126465;27;20051;-64
2024/02/22 10:18:39;;;;;;;20.00;6.57;;;11.80;99.90;;;;;;5125506;27;20039;-63
2024/02/22 10:21:16;;;;;;;21.25;6.50;;;11.80;99.90;;;;;;5127453;27;20125;-64
2024/02/22 10:23:44;;;;;;;25.92;6.68;;;11.80;99.90;;;;;;5124228;27;20034;-64
2024/02/22 10:26:09;;;;;;;32.67;7.03;;;11.80;99.90;;;;;;5123596;27;20078;-64
2024/02/22 10:28:35;;;;;;;22.65;7.07;;;11.70;99.90;;;;;;5123145;27;20130;-63
2024/02/22 10:31:05;;;;;;;25.65;7.63;;;11.70;99.90;;;;;;5126004;27;20536;-63
2024/02/22 10:33:32;;;;;;;23.95;7.22;;;11.70;99.90;;;;;;5126608;27;20527;-63
2024/02/22 10:36:01;;;;;;;21.95;6.40;;;11.70;99.90;;;;;;5125866;27;20045;-64
2024/02/22 10:38:29;;;;;;;22.52;8.65;;;11.70;99.90;;;;;;5128034;27;20041;-64
2024/02/22 10:40:55;;;;;;;23.60;7.40;;;11.60;99.90;;;;;;5127087;27;20170;-64
2024/02/22 10:43:25;;;;;;;21.48;7.50;;;11.70;99.90;;;;;;5126274;27;20062;-65
2024/02/22 10:45:57;;;;;;;18.80;7.30;;;11.70;99.90;;;;;;5129931;27;20553;-64
2024/02/22 10:48:31;;;;;;;27.70;7.88;;;11.70;99.90;;;;;;5126622;27;20039;-64
2024/02/22 10:50:58;;;;;;;24.02;7.97;;;11.70;99.90;;;;;;5125981;27;20258;-63
2024/02/22 10:53:25;;;;;;;21.17;8.57;;;11.60;99.90;;;;;;5126570;27;20038;-63
2024/02/22 10:55:55;;;;;;;19.20;8.52;;;11.70;99.90;;;;;;5125211;27;20175;-64
2024/02/22 10:58:23;;;;;;;24.38;8.57;;;11.70;99.90;;;;;;5125226;27;20455;-64
2024/02/22 11:00:51;;;;;;;24.65;8.23;;;11.70;99.90;;;;;;5124059;27;20030;-65
2024/02/22 11:03:18;;;;;;;21.52;7.90;;;11.70;99.90;;;;;;5123757;27;20088;-64
2024/02/22 11:05:50;;;;;;;23.52;7.57;;;12.00;99.90;;;;;;5128769;27;20123;-64
2024/02/22 11:08:20;;;;;;;24.73;8.27;;;12.00;99.90;;;;;;5128395;27;20047;-64
2024/02/22 11:10:58;;;;;;;23.15;8.05;;;12.30;99.90;;;;;;5125759;27;20050;-64
2024/02/22 11:13:24;;;;;;;29.02;8.80;;;12.40;99.90;;;;;;5126030;27;20464;-64
2024/02/22 11:15:50;;;;;;;17.67;7.90;;;12.50;99.90;;;;;;5131358;27;20416;-65
2024/02/22 11:18:23;;;;;;;19.52;7.43;;;12.60;99.90;;;;;;5126153;27;20049;-63
2024/02/22 11:20:49;;;;;;;18.20;7.07;;;12.60;99.90;;;;;;5127576;27;20579;-65
2024/02/22 11:23:15;;;;;;;20.88;8.13;;;12.60;99.90;;;;;;5128506;27;20031;-64
2024/02/22 11:25:41;;;;;;;25.05;8.95;;;12.60;99.90;;;;;;5125899;27;20043;-64
2024/02/22 11:28:09;;;;;;;19.23;8.20;;;12.50;99.90;;;;;;5129058;27;20984;-65
2024/02/22 11:30:34;;;;;;;19.58;8.00;;;12.50;99.90;;;;;;5127924;27;21049;-64
2024/02/22 11:33:00;;;;;;;19.20;7.97;;;12.50;99.90;;;;;;5124084;27;20047;-65
2024/02/22 11:35:28;;;;;;;24.13;8.75;;;12.60;99.90;;;;;;5129082;27;20082;-64
2024/02/22 11:38:02;;;;;;;16.08;8.38;;;12.60;99.90;;;;;;5124825;27;20103;-64
2024/02/22 11:40:33;;;;;;;15.07;7.20;;;12.70;99.90;;;;;;5127689;27;20473;-65
2024/02/22 11:42:59;;;;;;;13.38;6.95;;;12.70;99.90;;;;;;5119082;27;20274;-64
2024/02/22 11:45:25;;;;;;;14.63;7.90;;;12.60;99.90;;;;;;5127324;27;20035;-65
2024/02/22 11:47:51;;;;;;;11.82;6.88;;;12.60;99.90;;;;;;5124321;27;20161;-64
2024/02/22 11:50:17;;;;;;;19.10;7.93;;;12.60;99.90;;;;;;5128201;27;20501;-63
2024/02/22 11:52:49;;;;;;;15.85;7.40;;;12.60;99.90;;;;;;5126383;27;20448;-64
2024/02/22 11:55:15;;;;;;;15.85;7.70;;;12.70;99.90;;;;;;5131089;27;20934;-64
2024/02/22 11:57:42;;;;;;;16.13;7.35;;;12.70;99.90;;;;;;5129980;27;20045;-63
2024/02/22 12:00:09;;;;;;;14.50;6.97;;;12.70;99.90;;;;;;5129992;27;20089;-64
2024/02/22 12:02:37;;;;;;;15.88;6.82;;;12.70;99.90;;;;;;5130336;27;20038;-64
2024/02/22 12:05:05;;;;;;;10.67;6.30;;;12.80;99.90;;;;;;5111316;27;20047;-63
2024/02/22 12:07:32;;;;;;;10.60;6.70;;;12.80;99.90;;;;;;5116733;27;20489;-64
2024/02/22 12:09:59;;;;;;;9.63;6.30;;;12.80;99.90;;;;;;5121939;27;20073;-66
2024/02/22 12:12:27;;;;;;;11.77;6.07;;;12.70;99.90;;;;;;5128126;27;20039;-64
2024/02/22 12:14:58;;;;;;;13.63;5.95;;;12.70;99.90;;;;;;5118978;27;20068;-64
2024/02/22 12:17:30;;;;;;;10.07;6.68;;;12.60;99.90;;;;;;5129647;27;20039;-65
2024/02/22 12:19:56;;;;;;;10.98;6.20;;;12.70;99.90;;;;;;5127974;27;20034;-65
2024/02/22 12:22:22;;;;;;;11.50;6.22;;;12.60;99.90;;;;;;5133092;27;20041;-65
2024/02/22 12:24:49;;;;;;;11.95;5.78;;;12.60;99.90;;;;;;5126160;27;20047;-64
2024/02/22 12:27:16;;;;;;;9.88;5.45;;;12.60;99.90;;;;;;5129401;27;20043;-65
2024/02/22 12:29:42;;;;;;;9.45;4.45;;;12.60;99.90;;;;;;5130498;27;20027;-65
2024/02/22 12:32:08;;;;;;;7.30;3.90;;;12.60;99.90;;;;;;5127452;27;20073;-64
2024/02/22 12:34:37;;;;;;;8.32;4.10;;;12.60;99.90;;;;;;5123711;27;20126;-65